createdAt,value
2019-03-27T00:01:25.363Z,22.30
2019-03-27T00:04:14.184Z,18.37
2019-03-27T00:07:02.979Z,17.33
2019-03-27T00:09:51.788Z,12.73
2019-03-27T00:12:40.586Z,16.27
2019-03-27T00:15:29.401Z,15.17
2019-03-27T00:18:18.203Z,22.93
2019-03-27T00:21:07.033Z,18.83
2019-03-27T00:24:03.395Z,21.10
2019-03-27T00:26:52.240Z,23.33
2019-03-27T00:29:41.028Z,14.30
2019-03-27T00:32:29.849Z,23.73
2019-03-27T00:35:18.666Z,14.37
2019-03-27T00:38:07.464Z,13.20
2019-03-27T00:41:15.303Z,21.77
2019-03-27T00:44:23.125Z,16.30
2019-03-27T00:47:05.211Z,17.30
2019-03-27T00:49:54.017Z,16.57
2019-03-27T00:52:35.813Z,22.58
2019-03-27T00:55:43.619Z,20.40
2019-03-27T00:58:32.420Z,20.33
2019-03-27T01:01:21.233Z,19.40
2019-03-27T01:04:10.042Z,18.20
2019-03-27T01:06:58.848Z,17.70
2019-03-27T01:09:47.668Z,18.63
2019-03-27T01:12:36.465Z,18.23
2019-03-27T01:15:34.339Z,20.97
2019-03-27T01:18:15.813Z,18.27
2019-03-27T01:21:05.225Z,23.30
2019-03-27T01:23:54.021Z,16.30
2019-03-27T01:26:42.843Z,21.43
2019-03-27T01:29:31.646Z,16.73
2019-03-27T01:32:20.463Z,18.73
2019-03-27T01:35:09.335Z,16.07
2019-03-27T01:40:52.874Z,14.40
2019-03-27T01:43:41.701Z,20.63
2019-03-27T01:46:30.498Z,18.37
2019-03-27T01:49:12.585Z,18.77
2019-03-27T01:52:01.399Z,19.00
2019-03-27T01:54:50.194Z,23.17
2019-03-27T01:57:39.014Z,19.40
2019-03-27T02:00:27.809Z,22.97
2019-03-27T02:03:16.628Z,26.67
2019-03-27T02:06:05.500Z,20.87
2019-03-27T02:08:54.325Z,21.57
2019-03-27T02:11:43.207Z,23.80
2019-03-27T02:17:39.759Z,23.43
2019-03-27T02:20:28.560Z,20.60
2019-03-27T02:23:17.362Z,26.93
2019-03-27T02:26:06.236Z,23.50
2019-03-27T02:28:55.045Z,21.67
2019-03-27T02:31:43.857Z,17.27
2019-03-27T02:34:32.671Z,29.63
2019-03-27T02:37:21.473Z,21.57
2019-03-27T02:40:10.991Z,18.80
2019-03-27T02:42:59.824Z,23.17
2019-03-27T02:45:48.649Z,17.73
2019-03-27T02:48:37.443Z,32.33
2019-03-27T02:51:18.902Z,18.27
2019-03-27T02:54:07.703Z,28.50
2019-03-27T02:56:56.520Z,21.57
2019-03-27T02:59:45.352Z,23.13
2019-03-27T03:02:34.143Z,16.47
2019-03-27T03:05:22.961Z,22.47
2019-03-27T03:08:11.754Z,17.30
2019-03-27T03:11:00.579Z,27.47
2019-03-27T03:13:49.387Z,28.73
2019-03-27T03:16:42.854Z,25.03
2019-03-27T03:19:28.735Z,23.57
2019-03-27T03:22:17.523Z,26.57
2019-03-27T03:25:06.616Z,25.70
2019-03-27T03:30:49.271Z,30.25
2019-03-27T03:33:38.067Z,24.67
2019-03-27T03:36:26.878Z,25.77
2019-03-27T03:39:15.948Z,26.43
2019-03-27T03:42:04.777Z,19.87
2019-03-27T03:44:53.552Z,30.77
2019-03-27T03:47:42.436Z,23.00
2019-03-27T03:50:43.072Z,24.00
2019-03-27T03:53:32.132Z,29.87
2019-03-27T03:56:41.865Z,32.20
2019-03-27T03:59:30.932Z,27.37
2019-03-27T04:02:20.124Z,23.83
2019-03-27T04:05:28.671Z,28.37
2019-03-27T04:08:17.466Z,20.77
2019-03-27T04:11:06.276Z,25.13
2019-03-27T04:13:55.169Z,33.17
2019-03-27T04:16:43.954Z,26.53
2019-03-27T04:19:32.747Z,27.40
2019-03-27T04:22:21.568Z,21.63
2019-03-27T04:25:10.401Z,23.10
2019-03-27T04:27:59.199Z,22.10
2019-03-27T04:30:48.025Z,19.87
2019-03-27T04:33:37.082Z,14.90
2019-03-27T04:36:25.910Z,19.57
2019-03-27T04:39:14.700Z,24.23
2019-03-27T04:42:03.528Z,18.80
2019-03-27T04:44:52.322Z,18.63
2019-03-27T04:50:28.333Z,28.43
2019-03-27T04:53:17.129Z,32.47
2019-03-27T04:56:05.947Z,31.47
2019-03-27T04:58:54.747Z,29.40
2019-03-27T05:02:02.583Z,21.47
2019-03-27T05:08:00.767Z,25.27
2019-03-27T05:10:49.558Z,20.95
2019-03-27T05:13:38.380Z,34.03
2019-03-27T05:16:27.180Z,28.83
2019-03-27T05:19:16.000Z,26.03
2019-03-27T05:22:04.798Z,17.40
2019-03-27T05:24:53.620Z,25.37
2019-03-27T05:27:42.432Z,22.67
2019-03-27T05:30:31.309Z,25.60
2019-03-27T05:33:20.102Z,21.70
2019-03-27T05:36:08.924Z,21.27
2019-03-27T05:38:57.729Z,28.57
2019-03-27T05:41:46.540Z,20.10
2019-03-27T05:44:35.344Z,30.80
2019-03-27T05:47:24.158Z,40.97
2019-03-27T05:50:13.043Z,25.70
2019-03-27T05:52:55.023Z,26.30
2019-03-27T05:55:44.901Z,21.52
2019-03-27T05:58:33.727Z,28.80
2019-03-27T06:04:16.823Z,25.37
2019-03-27T06:07:05.651Z,28.63
2019-03-27T06:09:54.464Z,38.17
2019-03-27T06:12:43.292Z,33.50
2019-03-27T06:15:32.106Z,39.70
2019-03-27T06:18:20.932Z,40.80
2019-03-27T06:21:09.752Z,38.37
2019-03-27T06:23:58.550Z,37.57
2019-03-27T06:26:47.371Z,50.67
2019-03-27T06:29:36.165Z,62.97
2019-03-27T06:32:24.987Z,47.57
2019-03-27T06:35:13.847Z,45.27
2019-03-27T06:38:02.750Z,23.83
2019-03-27T06:40:51.570Z,29.70
2019-03-27T06:43:40.388Z,41.70
2019-03-27T06:46:29.203Z,35.43
2019-03-27T06:49:37.061Z,28.30
2019-03-27T06:52:19.129Z,32.43
2019-03-27T06:58:23.146Z,27.83
2019-03-27T07:01:11.977Z,26.17
2019-03-27T07:04:10.467Z,20.60
2019-03-27T07:06:51.340Z,24.00
2019-03-27T07:09:42.482Z,23.07
2019-03-27T07:12:30.967Z,28.13
2019-03-27T07:15:20.080Z,26.53
2019-03-27T07:18:08.908Z,30.30
2019-03-27T07:21:16.733Z,26.77
2019-03-27T07:24:05.571Z,30.83
2019-03-27T07:26:54.370Z,30.13
2019-03-27T07:29:43.182Z,28.67
2019-03-27T07:32:32.022Z,27.00
2019-03-27T07:35:20.820Z,26.17
2019-03-27T07:38:09.644Z,26.93
2019-03-27T07:40:58.442Z,20.37
2019-03-27T07:43:47.281Z,22.87
2019-03-27T07:46:36.093Z,29.70
2019-03-27T07:49:24.915Z,28.90
2019-03-27T07:52:13.714Z,24.57
2019-03-27T07:55:02.536Z,25.00
2019-03-27T08:00:59.089Z,26.40
2019-03-27T08:03:47.898Z,22.47
2019-03-27T08:06:36.718Z,24.33
2019-03-27T08:09:25.521Z,29.50
2019-03-27T08:12:14.336Z,21.57
2019-03-27T08:18:17.930Z,31.47
2019-03-27T08:21:06.757Z,34.90
2019-03-27T08:23:55.556Z,22.27
2019-03-27T08:26:44.389Z,23.27
2019-03-27T08:29:33.182Z,25.23
2019-03-27T08:32:22.012Z,27.50
2019-03-27T08:38:39.388Z,21.17
2019-03-27T08:41:28.185Z,31.20
2019-03-27T08:44:17.010Z,22.07
2019-03-27T08:47:05.818Z,24.33
2019-03-27T08:49:54.643Z,22.57
2019-03-27T08:52:36.140Z,22.20
2019-03-27T08:55:24.961Z,25.10
2019-03-27T08:58:13.773Z,25.23
2019-03-27T09:01:02.599Z,20.30
2019-03-27T09:03:51.398Z,18.40
2019-03-27T09:06:40.298Z,26.80
2019-03-27T09:09:29.102Z,21.73
2019-03-27T09:12:17.928Z,15.60
2019-03-27T09:15:27.630Z,20.37
2019-03-27T09:18:17.020Z,31.60
2019-03-27T09:21:06.971Z,15.50
2019-03-27T09:23:55.797Z,21.40
2019-03-27T09:26:44.685Z,24.07
2019-03-27T09:29:33.507Z,26.10
2019-03-27T09:32:22.331Z,18.23
2019-03-27T09:38:39.554Z,20.13
2019-03-27T09:41:28.367Z,19.67
2019-03-27T09:44:17.184Z,34.27
2019-03-27T09:47:06.019Z,17.00
2019-03-27T09:49:54.820Z,22.70
2019-03-27T09:52:36.544Z,19.87
2019-03-27T09:58:20.199Z,16.93
2019-03-27T10:01:09.053Z,13.43
2019-03-27T10:03:57.850Z,12.70
2019-03-27T10:06:46.677Z,11.27
2019-03-27T10:09:35.497Z,15.40
2019-03-27T10:12:24.371Z,15.57
2019-03-27T10:15:13.531Z,16.77
2019-03-27T10:18:02.367Z,16.90
2019-03-27T10:20:51.173Z,13.70
2019-03-27T10:23:39.999Z,13.77
2019-03-27T10:26:28.824Z,23.12
2019-03-27T10:29:17.645Z,10.43
2019-03-27T10:32:06.472Z,10.63
2019-03-27T10:34:55.276Z,14.03
2019-03-27T10:37:44.073Z,12.77
2019-03-27T10:40:32.895Z,12.03
2019-03-27T10:43:21.699Z,10.67
2019-03-27T10:46:10.523Z,19.97
2019-03-27T10:48:59.336Z,20.27
2019-03-27T10:51:41.263Z,13.50
2019-03-27T10:54:30.087Z,26.97
2019-03-27T10:57:18.913Z,24.97
2019-03-27T11:00:28.928Z,22.17
2019-03-27T11:03:17.991Z,19.13
2019-03-27T11:06:06.786Z,18.57
2019-03-27T11:08:55.602Z,17.07
2019-03-27T11:11:44.441Z,19.47
2019-03-27T11:14:52.293Z,34.00
2019-03-27T11:19:55.256Z,17.30
2019-03-27T11:23:03.082Z,27.93
2019-03-27T11:25:33.341Z,19.77
2019-03-27T11:28:41.163Z,28.13
2019-03-27T11:31:29.985Z,15.20
2019-03-27T11:34:18.791Z,18.70
2019-03-27T11:37:07.615Z,18.40
2019-03-27T11:39:56.412Z,14.67
2019-03-27T11:42:45.236Z,22.77
2019-03-27T11:45:34.059Z,19.80
2019-03-27T11:48:22.854Z,16.80
2019-03-27T11:51:11.677Z,18.00
2019-03-27T11:53:53.814Z,18.97
2019-03-27T11:56:42.645Z,18.10
2019-03-27T11:59:31.448Z,21.57
2019-03-27T12:02:20.267Z,15.20
2019-03-27T12:05:09.136Z,18.73
2019-03-27T12:07:57.964Z,15.57
2019-03-27T12:10:47.630Z,21.20
2019-03-27T12:13:36.449Z,19.80
2019-03-27T12:16:25.263Z,17.40
2019-03-27T12:19:14.219Z,12.60
2019-03-27T12:25:10.920Z,19.30
2019-03-27T12:27:59.739Z,16.20
2019-03-27T12:30:48.577Z,16.43
2019-03-27T12:33:37.380Z,13.43
2019-03-27T12:36:26.264Z,14.10
2019-03-27T12:39:15.071Z,17.07
2019-03-27T12:42:03.896Z,16.67
2019-03-27T12:44:52.715Z,19.07
2019-03-27T12:47:41.584Z,18.87
2019-03-27T12:50:30.405Z,17.83
2019-03-27T12:53:11.638Z,15.50
2019-03-27T12:56:00.468Z,18.00
2019-03-27T12:58:49.274Z,18.20
2019-03-27T13:01:38.087Z,12.93
2019-03-27T13:04:26.902Z,20.77
2019-03-27T13:07:15.724Z,15.50
2019-03-27T13:10:25.434Z,13.03
2019-03-27T13:13:14.259Z,12.60
2019-03-27T13:19:10.885Z,20.97
2019-03-27T13:21:59.711Z,15.60
2019-03-27T13:25:07.554Z,24.50
2019-03-27T13:27:56.385Z,19.70
2019-03-27T13:30:25.870Z,23.07
2019-03-27T13:33:14.683Z,12.90
2019-03-27T13:36:03.507Z,16.00
2019-03-27T13:38:52.306Z,17.23
2019-03-27T13:41:41.149Z,15.20
2019-03-27T13:44:36.723Z,25.07
2019-03-27T13:47:20.509Z,17.23
2019-03-27T13:50:30.220Z,13.17
2019-03-27T13:53:19.036Z,17.20
2019-03-27T13:56:00.746Z,21.30
2019-03-27T13:58:49.545Z,14.47
2019-03-27T14:01:38.687Z,14.10
2019-03-27T14:04:27.545Z,26.13
2019-03-27T14:07:16.347Z,12.77
2019-03-27T14:10:07.097Z,13.30
2019-03-27T14:12:55.912Z,16.90
2019-03-27T14:15:44.734Z,14.70
2019-03-27T14:18:33.568Z,22.90
2019-03-27T14:21:23.404Z,14.37
2019-03-27T14:24:12.909Z,14.13
2019-03-27T14:27:01.723Z,15.50
2019-03-27T14:29:50.552Z,15.40
2019-03-27T14:32:39.356Z,18.87
2019-03-27T14:35:28.181Z,16.87
2019-03-27T14:38:16.998Z,18.23
2019-03-27T14:41:05.821Z,11.83
2019-03-27T14:43:54.640Z,15.03
2019-03-27T14:46:43.452Z,23.70
2019-03-27T14:49:32.273Z,14.27
2019-03-27T14:52:14.100Z,15.78
2019-03-27T14:55:03.519Z,15.40
2019-03-27T14:57:53.473Z,19.50
2019-03-27T15:00:42.270Z,13.13
2019-03-27T15:03:31.090Z,11.43
2019-03-27T15:06:19.894Z,14.00
2019-03-27T15:09:09.384Z,16.00
2019-03-27T15:11:58.193Z,14.30
2019-03-27T15:14:47.019Z,18.90
2019-03-27T15:17:35.893Z,17.70
2019-03-27T15:20:24.713Z,11.97
2019-03-27T15:23:13.525Z,15.13
2019-03-27T15:26:02.414Z,17.03
2019-03-27T15:28:51.272Z,17.07
2019-03-27T15:31:40.031Z,14.10
2019-03-27T15:34:28.865Z,27.60
2019-03-27T15:37:17.744Z,16.07
2019-03-27T15:40:06.867Z,11.23
2019-03-27T15:42:55.733Z,13.50
2019-03-27T15:45:44.571Z,16.17
2019-03-27T15:48:33.426Z,19.80
2019-03-27T15:51:15.328Z,13.43
2019-03-27T15:54:04.283Z,17.20
2019-03-27T15:56:53.116Z,18.12
2019-03-27T15:59:41.932Z,17.40
2019-03-27T16:02:30.734Z,15.03
2019-03-27T16:05:19.565Z,13.20
2019-03-27T16:08:08.383Z,13.10
2019-03-27T16:10:57.221Z,18.20
2019-03-27T16:13:46.010Z,14.77
2019-03-27T16:16:34.892Z,19.10
2019-03-27T16:19:23.646Z,14.07
2019-03-27T16:22:12.468Z,16.95
2019-03-27T16:25:01.283Z,14.70
2019-03-27T16:27:50.088Z,15.00
2019-03-27T16:30:38.919Z,14.17
2019-03-27T16:33:27.716Z,17.20
2019-03-27T16:36:16.541Z,15.83
2019-03-27T16:39:26.260Z,29.17
2019-03-27T16:42:15.087Z,23.10
2019-03-27T16:45:24.819Z,19.90
2019-03-27T16:48:13.824Z,14.00
2019-03-27T16:51:02.627Z,26.82
2019-03-27T16:53:44.736Z,17.70
2019-03-27T16:56:33.553Z,18.77
2019-03-27T16:59:22.374Z,13.17
2019-03-27T17:02:11.271Z,17.83
2019-03-27T17:05:00.095Z,24.20
2019-03-27T17:07:48.984Z,12.07
2019-03-27T17:10:37.779Z,16.80
2019-03-27T17:13:26.608Z,16.50
2019-03-27T17:16:15.496Z,22.27
2019-03-27T17:19:04.329Z,17.90
2019-03-27T17:21:53.134Z,19.07
2019-03-27T17:24:41.964Z,24.47
2019-03-27T17:27:30.790Z,25.80
2019-03-27T17:30:20.046Z,24.63
2019-03-27T17:33:08.875Z,20.40
2019-03-27T17:35:38.374Z,18.80
2019-03-27T17:41:34.932Z,17.57
2019-03-27T17:44:23.764Z,18.60
2019-03-27T17:47:12.650Z,21.70
2019-03-27T17:50:01.468Z,15.67
2019-03-27T17:52:42.941Z,18.70
2019-03-27T17:55:31.771Z,18.40
2019-03-27T17:58:20.589Z,23.50
2019-03-27T18:01:09.666Z,18.97
2019-03-27T18:03:58.491Z,26.93
2019-03-27T18:07:06.324Z,33.60
2019-03-27T18:09:55.169Z,17.90
2019-03-27T18:12:43.990Z,17.13
2019-03-27T18:15:32.791Z,25.90
2019-03-27T18:18:21.606Z,17.93
2019-03-27T18:21:10.409Z,20.17
2019-03-27T18:29:47.564Z,20.07
2019-03-27T18:32:36.359Z,14.43
2019-03-27T18:35:25.188Z,15.20
2019-03-27T18:38:13.987Z,22.07
2019-03-27T18:41:02.882Z,26.77
2019-03-27T18:43:51.680Z,26.83
2019-03-27T18:46:40.499Z,32.23
2019-03-27T18:49:29.303Z,28.37
2019-03-27T18:52:10.875Z,21.97
2019-03-27T18:54:59.679Z,22.93
2019-03-27T18:57:59.345Z,18.47
2019-03-27T19:00:39.353Z,14.40
2019-03-27T19:03:28.208Z,21.00
2019-03-27T19:06:17.041Z,21.00
2019-03-27T19:09:26.754Z,16.17
2019-03-27T19:12:15.576Z,18.83
2019-03-27T19:15:25.298Z,21.67
2019-03-27T19:18:14.095Z,20.23
2019-03-27T19:21:02.919Z,19.07
2019-03-27T19:23:51.727Z,24.27
2019-03-27T19:26:40.540Z,26.67
2019-03-27T19:29:29.339Z,28.97
2019-03-27T19:32:18.231Z,21.87
2019-03-27T19:35:07.095Z,22.23
2019-03-27T19:37:55.944Z,25.47
2019-03-27T19:40:44.805Z,25.27
2019-03-27T19:43:33.634Z,21.50
2019-03-27T19:46:22.442Z,24.10
2019-03-27T19:49:11.331Z,21.57
2019-03-27T19:52:00.133Z,22.20
2019-03-27T19:54:41.854Z,23.03
2019-03-27T19:57:30.925Z,18.90
2019-03-27T20:03:35.122Z,21.90
2019-03-27T20:06:43.160Z,21.03
2019-03-27T20:09:32.014Z,28.03
2019-03-27T20:12:20.832Z,22.87
2019-03-27T20:15:12.132Z,23.83
2019-03-27T20:18:00.435Z,30.27
2019-03-27T20:20:49.663Z,29.80
2019-03-27T20:23:38.489Z,21.50
2019-03-27T20:29:35.113Z,29.17
2019-03-27T20:32:23.916Z,26.53
2019-03-27T20:35:12.798Z,30.70
2019-03-27T20:38:01.598Z,39.73
2019-03-27T20:40:43.139Z,33.10
2019-03-27T20:43:31.895Z,36.63
2019-03-27T20:49:14.977Z,34.00
2019-03-27T20:52:22.811Z,35.53
2019-03-27T20:55:11.771Z,27.70
2019-03-27T20:58:00.603Z,29.47
2019-03-27T21:01:08.811Z,34.15
2019-03-27T21:03:57.642Z,43.33
2019-03-27T21:06:46.467Z,35.83
2019-03-27T21:09:35.267Z,24.20
2019-03-27T21:12:24.090Z,23.20
2019-03-27T21:15:12.949Z,30.53
2019-03-27T21:18:01.805Z,42.23
2019-03-27T21:20:50.620Z,32.10
2019-03-27T21:23:39.443Z,34.47
2019-03-27T21:26:28.318Z,39.47
2019-03-27T21:29:17.123Z,34.10
2019-03-27T21:32:05.940Z,38.43
2019-03-27T21:35:13.759Z,39.10
2019-03-27T21:37:53.513Z,44.80
2019-03-27T21:40:42.360Z,43.57
2019-03-27T21:43:31.164Z,37.30
2019-03-27T21:49:27.732Z,31.30
2019-03-27T21:52:16.520Z,35.03
2019-03-27T21:55:24.666Z,46.83
2019-03-27T21:58:13.508Z,33.13
2019-03-27T22:01:02.379Z,33.07
2019-03-27T22:03:51.216Z,28.40
2019-03-27T22:06:40.029Z,32.20
2019-03-27T22:09:28.824Z,25.63
2019-03-27T22:12:17.642Z,31.47
2019-03-27T22:15:25.756Z,39.20
2019-03-27T22:18:14.580Z,44.20
2019-03-27T22:21:03.384Z,38.40
2019-03-27T22:23:52.242Z,34.10
2019-03-27T22:26:41.049Z,43.43
2019-03-27T22:29:29.861Z,33.87
2019-03-27T22:32:18.923Z,34.63
2019-03-27T22:38:27.303Z,34.93
2019-03-27T22:41:16.095Z,30.10
2019-03-27T22:44:04.910Z,29.13
2019-03-27T22:46:53.730Z,26.60
2019-03-27T22:49:42.558Z,30.77
2019-03-27T22:52:31.346Z,33.30
2019-03-27T22:55:20.170Z,32.47
2019-03-27T22:58:08.962Z,30.10
2019-03-27T23:03:53.747Z,27.57
2019-03-27T23:06:42.550Z,26.90
2019-03-27T23:09:31.367Z,27.47
2019-03-27T23:15:27.984Z,23.73
2019-03-27T23:18:17.442Z,32.27
2019-03-27T23:21:25.280Z,34.07
2019-03-27T23:24:14.070Z,44.03
2019-03-27T23:27:02.908Z,29.00
2019-03-27T23:29:51.695Z,23.30
2019-03-27T23:32:40.522Z,23.33
2019-03-27T23:35:29.319Z,26.93
2019-03-27T23:38:18.134Z,32.20
2019-03-27T23:40:59.677Z,30.85
2019-03-27T23:43:49.080Z,29.30
2019-03-27T23:46:39.012Z,35.50
2019-03-27T23:49:27.809Z,28.70
2019-03-27T23:52:16.630Z,34.47
2019-03-27T23:58:34.499Z,34.63
